Terminal Aerodrome Forecast
Issued by NWS Sioux Falls, SD

Home | Current Version | Previous Version | Text Only | Print | Product List | Glossary On
Versions: 1 2 3 4 5 6 7 8 9 10 11 12 13
005
FTUS43 KFSD 161720
TAFHON
TAF
KHON 161720Z 1618/1718 35003KT P6SM SCT250
     FM162300 32005KT P6SM SKC
     FM171200 28005KT P6SM SCT090=

USA.gov is the U.S. government's official web portal to all federal, state and local government web resources and services.